createdAt,value
2023-11-20T00:01:09.003Z,99.90
2023-11-20T00:04:53.227Z,99.90
2023-11-20T00:08:35.136Z,99.90
2023-11-20T00:12:16.903Z,99.90
2023-11-20T00:15:58.889Z,99.90
2023-11-20T00:19:40.767Z,99.90
2023-11-20T00:23:23.865Z,99.90
2023-11-20T00:27:09.225Z,99.90
2023-11-20T00:30:51.329Z,99.90
2023-11-20T00:34:33.208Z,99.90
2023-11-20T00:38:18.216Z,99.90
2023-11-20T00:42:00.059Z,99.90
2023-11-20T00:45:41.967Z,99.90
2023-11-20T00:49:23.801Z,99.90
2023-11-20T00:53:05.668Z,99.90
2023-11-20T00:56:47.459Z,99.90
2023-11-20T01:00:29.399Z,99.90
2023-11-20T01:04:11.431Z,99.90
2023-11-20T01:07:53.421Z,99.90
2023-11-20T01:11:37.823Z,99.90
2023-11-20T01:15:19.819Z,99.90
2023-11-20T01:19:01.781Z,99.90
2023-11-20T01:22:43.643Z,99.90
2023-11-20T01:26:25.814Z,99.90
2023-11-20T01:30:11.056Z,99.90
2023-11-20T01:33:53.441Z,99.90
2023-11-20T01:37:35.399Z,99.90
2023-11-20T01:41:17.805Z,99.90
2023-11-20T01:45:00.569Z,99.90
2023-11-20T01:48:43.185Z,99.90
2023-11-20T01:52:25.169Z,99.90
2023-11-20T01:56:09.978Z,99.90
2023-11-20T01:59:52.174Z,99.90
2023-11-20T02:03:34.835Z,99.90
2023-11-20T02:07:17.295Z,99.90
2023-11-20T02:11:03.599Z,99.90
2023-11-20T02:14:45.725Z,99.90
2023-11-20T02:18:31.654Z,99.90
2023-11-20T02:22:13.527Z,99.90
2023-11-20T02:26:10.801Z,99.90
2023-11-20T02:29:54.803Z,99.90
2023-11-20T02:33:37.588Z,99.90
2023-11-20T02:37:19.710Z,99.90
2023-11-20T02:41:01.713Z,99.90
2023-11-20T02:44:44.712Z,99.90
2023-11-20T02:48:30.478Z,99.90
2023-11-20T02:52:12.498Z,99.90
2023-11-20T02:55:54.315Z,99.90
2023-11-20T02:59:36.188Z,99.90
2023-11-20T03:03:19.065Z,99.90
2023-11-20T03:07:01.809Z,99.90
2023-11-20T03:10:43.644Z,99.90
2023-11-20T03:14:25.475Z,99.90
2023-11-20T03:18:07.774Z,99.90
2023-11-20T03:21:49.634Z,99.90
2023-11-20T03:25:31.818Z,99.90
2023-11-20T03:29:13.700Z,99.90
2023-11-20T03:32:55.549Z,99.90
2023-11-20T03:36:37.533Z,99.90
2023-11-20T03:40:19.534Z,99.90
2023-11-20T03:44:01.441Z,99.90
2023-11-20T03:47:43.278Z,99.90
2023-11-20T03:51:26.989Z,99.90
2023-11-20T03:55:10.956Z,99.90
2023-11-20T03:58:52.804Z,99.90
2023-11-20T04:02:34.613Z,99.90
2023-11-20T04:06:16.450Z,99.90
2023-11-20T04:09:58.859Z,99.90
2023-11-20T04:13:41.961Z,99.90
2023-11-20T04:17:23.955Z,99.90
2023-11-20T04:21:07.134Z,99.90
2023-11-20T04:24:49.655Z,99.90
2023-11-20T04:28:36.444Z,99.90
2023-11-20T04:32:18.271Z,99.90
2023-11-20T04:36:03.988Z,99.90
2023-11-20T04:39:46.120Z,99.90
2023-11-20T04:43:27.989Z,99.90
2023-11-20T04:47:09.825Z,99.90
2023-11-20T04:50:51.704Z,99.90
2023-11-20T04:54:34.639Z,99.90
2023-11-20T04:58:22.834Z,99.90
2023-11-20T05:02:04.895Z,99.90
2023-11-20T05:05:46.971Z,99.90
2023-11-20T05:09:28.777Z,99.90
2023-11-20T05:13:12.092Z,99.90
2023-11-20T05:16:54.050Z,99.90
2023-11-20T05:20:35.976Z,99.90
2023-11-20T05:24:17.809Z,99.90
2023-11-20T05:27:59.686Z,99.90
2023-11-20T05:31:43.965Z,99.90
2023-11-20T05:35:25.868Z,99.90
2023-11-20T05:39:07.755Z,99.90
2023-11-20T05:42:49.682Z,99.90
2023-11-20T05:46:31.489Z,99.90
2023-11-20T05:50:13.478Z,99.90
2023-11-20T05:53:55.358Z,99.90
2023-11-20T05:57:38.293Z,99.90
2023-11-20T06:01:20.195Z,99.90
2023-11-20T06:05:07.537Z,99.90
2023-11-20T06:08:50.998Z,99.90
2023-11-20T06:12:32.798Z,99.90
2023-11-20T06:16:15.926Z,99.90
2023-11-20T06:19:58.286Z,99.90
2023-11-20T06:23:40.065Z,99.90
2023-11-20T06:27:21.892Z,99.90
2023-11-20T06:31:04.388Z,99.90
2023-11-20T06:34:46.296Z,99.90
2023-11-20T06:38:28.068Z,99.90
2023-11-20T06:42:09.918Z,99.90
2023-11-20T06:45:52.287Z,99.90
2023-11-20T06:49:34.103Z,99.90
2023-11-20T06:53:16.066Z,99.90
2023-11-20T06:56:58.023Z,99.90
2023-11-20T07:00:39.896Z,99.90
2023-11-20T07:04:22.032Z,99.90
2023-11-20T07:08:08.269Z,99.90
2023-11-20T07:11:50.308Z,99.90
2023-11-20T07:15:34.373Z,99.90
2023-11-20T07:19:16.852Z,99.90
2023-11-20T07:22:59.757Z,99.90
2023-11-20T07:26:41.808Z,99.90
2023-11-20T07:30:23.584Z,99.90
2023-11-20T07:34:07.469Z,99.90
2023-11-20T07:37:49.393Z,99.90
2023-11-20T07:41:31.203Z,99.90
2023-11-20T07:45:14.034Z,99.90
2023-11-20T07:48:55.897Z,99.90
2023-11-20T07:52:38.651Z,99.90
2023-11-20T07:56:20.505Z,99.90
2023-11-20T08:00:05.505Z,99.90
2023-11-20T08:03:47.463Z,99.90
2023-11-20T08:07:29.328Z,99.90
2023-11-20T08:11:11.185Z,99.90
2023-11-20T08:14:52.999Z,99.90
2023-11-20T08:18:37.347Z,99.90
2023-11-20T08:22:19.733Z,99.90
2023-11-20T08:26:01.654Z,99.90
2023-11-20T08:29:44.204Z,99.90
2023-11-20T08:33:26.121Z,99.90
2023-11-20T08:37:09.009Z,99.90
2023-11-20T08:40:51.902Z,99.90
2023-11-20T08:44:34.976Z,99.90
2023-11-20T08:48:16.898Z,99.90
2023-11-20T08:52:04.298Z,99.90
2023-11-20T08:55:47.408Z,99.90
2023-11-20T08:59:32.441Z,99.90
2023-11-20T09:03:14.731Z,99.90
2023-11-20T09:06:56.742Z,99.90
2023-11-20T09:10:39.093Z,99.90
2023-11-20T09:14:20.903Z,99.90
2023-11-20T09:18:02.782Z,99.90
2023-11-20T09:21:45.034Z,99.90
2023-11-20T09:25:27.255Z,99.90
2023-11-20T09:29:11.414Z,99.90
2023-11-20T09:32:54.893Z,99.90
2023-11-20T09:36:36.760Z,99.90
2023-11-20T09:40:19.009Z,99.90
2023-11-20T09:44:01.666Z,99.90
2023-11-20T09:47:47.049Z,99.90
2023-11-20T09:51:29.613Z,99.90
2023-11-20T09:55:13.953Z,99.90
2023-11-20T09:58:55.803Z,99.90
2023-11-20T10:02:37.823Z,99.90
2023-11-20T10:06:23.009Z,99.90
2023-11-20T10:10:06.823Z,99.90
2023-11-20T10:13:48.767Z,99.90
2023-11-20T10:17:30.928Z,99.90
2023-11-20T10:21:19.078Z,99.90
2023-11-20T10:25:05.570Z,99.90
2023-11-20T10:28:47.422Z,99.90
2023-11-20T10:32:29.460Z,99.90
2023-11-20T10:36:15.916Z,99.90
2023-11-20T10:39:57.920Z,99.90
2023-11-20T10:43:42.268Z,99.90
2023-11-20T10:47:26.281Z,99.90
2023-11-20T10:51:10.372Z,99.90
2023-11-20T10:54:52.774Z,99.90
2023-11-20T10:58:34.961Z,99.90
2023-11-20T11:02:21.392Z,99.90
2023-11-20T11:06:11.264Z,99.90
2023-11-20T11:09:54.696Z,99.80
2023-11-20T11:13:37.309Z,99.70
2023-11-20T11:17:23.914Z,99.10
2023-11-20T11:21:11.574Z,99.00
2023-11-20T11:24:58.609Z,98.70
2023-11-20T11:28:44.601Z,98.30
2023-11-20T11:32:32.699Z,98.20
2023-11-20T11:36:59.898Z,97.10
2023-11-20T11:41:15.151Z,96.30
2023-11-20T11:45:18.754Z,94.10
2023-11-20T11:49:23.238Z,93.30
2023-11-20T11:53:05.214Z,92.70
2023-11-20T11:57:25.651Z,90.20
2023-11-20T12:01:20.424Z,90.90
2023-11-20T12:05:02.962Z,90.00
2023-11-20T12:08:48.240Z,89.40
2023-11-20T12:12:49.564Z,89.70
2023-11-20T12:16:37.829Z,90.60
2023-11-20T12:20:20.114Z,90.20
2023-11-20T12:24:02.288Z,90.00
2023-11-20T12:27:47.807Z,89.80
2023-11-20T12:31:29.714Z,90.20
2023-11-20T12:35:11.590Z,90.20
2023-11-20T12:38:54.368Z,90.30
2023-11-20T12:42:37.364Z,90.10
2023-11-20T12:46:20.916Z,90.50
2023-11-20T12:50:03.210Z,90.90
2023-11-20T12:53:48.012Z,91.30
2023-11-20T12:57:32.019Z,91.90
2023-11-20T13:01:14.193Z,91.70
2023-11-20T13:04:56.263Z,92.10
2023-11-20T13:08:39.248Z,92.30
2023-11-20T13:12:23.003Z,92.50
2023-11-20T13:16:22.050Z,92.50
2023-11-20T13:20:11.856Z,92.50
2023-11-20T13:24:01.221Z,92.50
2023-11-20T13:27:43.324Z,92.50
2023-11-20T13:31:38.196Z,92.60
2023-11-20T13:35:21.018Z,92.70
2023-11-20T13:39:04.062Z,92.70
2023-11-20T13:42:45.870Z,92.70
2023-11-20T13:46:33.822Z,92.40
2023-11-20T13:50:16.722Z,92.60
2023-11-20T13:53:58.529Z,92.90
2023-11-20T13:57:40.585Z,92.90
2023-11-20T14:01:22.662Z,92.90
2023-11-20T14:05:05.568Z,92.80
2023-11-20T14:08:49.673Z,92.90
2023-11-20T14:12:31.527Z,92.80
2023-11-20T14:16:13.903Z,92.70
2023-11-20T14:19:55.957Z,93.00
2023-11-20T14:23:40.323Z,93.10
2023-11-20T14:27:22.189Z,93.20
2023-11-20T14:31:04.346Z,93.00
2023-11-20T14:34:46.219Z,93.20
2023-11-20T14:38:28.201Z,93.30
2023-11-20T14:42:10.608Z,93.50
2023-11-20T14:45:52.833Z,92.60
2023-11-20T14:49:36.463Z,91.60
2023-11-20T14:53:19.406Z,91.20
2023-11-20T14:57:01.491Z,91.40
2023-11-20T15:00:43.290Z,91.90
2023-11-20T15:04:28.189Z,92.50
2023-11-20T15:08:10.069Z,92.70
2023-11-20T15:11:52.379Z,93.10
2023-11-20T15:15:34.391Z,93.40
2023-11-20T15:19:16.240Z,93.60
2023-11-20T15:22:58.209Z,93.80
2023-11-20T15:26:40.146Z,94.10
2023-11-20T15:30:21.998Z,94.30
2023-11-20T15:34:04.782Z,94.60
2023-11-20T15:37:46.721Z,94.80
2023-11-20T15:41:28.542Z,95.10
2023-11-20T15:45:12.219Z,95.30
2023-11-20T15:48:54.153Z,95.50
2023-11-20T15:52:36.026Z,95.70
2023-11-20T15:56:18.321Z,95.90
2023-11-20T16:00:01.055Z,96.10
2023-11-20T16:03:43.874Z,96.30
2023-11-20T16:07:25.861Z,96.50
2023-11-20T16:11:07.809Z,96.70
2023-11-20T16:14:49.780Z,96.90
2023-11-20T16:18:31.869Z,97.00
2023-11-20T16:22:13.882Z,97.00
2023-11-20T16:25:56.390Z,97.20
2023-11-20T16:29:38.327Z,97.40
2023-11-20T16:33:21.667Z,97.60
2023-11-20T16:37:05.480Z,97.70
2023-11-20T16:40:47.398Z,97.90
2023-11-20T16:44:29.355Z,98.10
2023-11-20T16:48:14.084Z,98.40
2023-11-20T16:51:58.192Z,98.60
2023-11-20T16:55:40.176Z,98.80
2023-11-20T16:59:22.031Z,99.00
2023-11-20T17:03:04.445Z,99.20
2023-11-20T17:06:46.311Z,99.30
2023-11-20T17:10:28.259Z,99.40
2023-11-20T17:14:10.115Z,99.50
2023-11-20T17:17:52.345Z,99.60
2023-11-20T17:21:34.384Z,99.80
2023-11-20T17:25:17.753Z,99.80
2023-11-20T17:28:59.659Z,99.80
2023-11-20T17:32:42.347Z,99.70
2023-11-20T17:36:24.253Z,99.60
2023-11-20T17:40:10.288Z,99.50
2023-11-20T17:43:52.266Z,99.40
2023-11-20T17:47:34.120Z,99.40
2023-11-20T17:51:16.035Z,99.40
2023-11-20T17:54:57.913Z,99.40
2023-11-20T17:58:40.176Z,99.40
2023-11-20T18:02:22.201Z,99.30
2023-11-20T18:06:04.401Z,99.30
2023-11-20T18:09:46.255Z,99.20
2023-11-20T18:13:29.268Z,99.10
2023-11-20T18:17:11.278Z,99.10
2023-11-20T18:20:53.217Z,99.00
2023-11-20T18:24:35.043Z,99.00
2023-11-20T18:28:17.387Z,98.90
2023-11-20T18:31:59.544Z,98.70
2023-11-20T18:35:44.654Z,98.60
2023-11-20T18:39:26.562Z,98.60
2023-11-20T18:43:11.693Z,98.50
2023-11-20T18:46:53.723Z,98.40
2023-11-20T18:50:35.753Z,98.20
2023-11-20T18:54:17.654Z,98.10
2023-11-20T18:58:01.442Z,98.00
2023-11-20T19:01:43.314Z,98.00
2023-11-20T19:05:25.242Z,98.10
2023-11-20T19:09:07.089Z,98.10
2023-11-20T19:12:49.134Z,98.20
2023-11-20T19:16:33.071Z,98.20
2023-11-20T19:20:16.229Z,98.50
2023-11-20T19:23:58.292Z,98.60
2023-11-20T19:27:40.236Z,98.80
2023-11-20T19:31:22.153Z,99.00
2023-11-20T19:35:04.361Z,99.20
2023-11-20T19:38:48.500Z,99.30
2023-11-20T19:42:30.387Z,99.40
2023-11-20T19:46:12.351Z,99.50
2023-11-20T19:49:54.176Z,99.70
2023-11-20T19:53:36.097Z,99.70
2023-11-20T19:57:18.001Z,99.80
2023-11-20T20:00:59.909Z,99.90
2023-11-20T20:04:42.173Z,99.90
2023-11-20T20:08:25.710Z,99.90
2023-11-20T20:12:08.228Z,99.90
2023-11-20T20:15:50.154Z,99.90
2023-11-20T20:19:32.143Z,99.90
2023-11-20T20:23:14.500Z,99.90
2023-11-20T20:26:56.347Z,99.90
2023-11-20T20:30:38.163Z,99.90
2023-11-20T20:34:20.181Z,99.90
2023-11-20T20:38:03.580Z,99.90
2023-11-20T20:41:45.382Z,99.90
2023-11-20T20:45:28.033Z,99.90
2023-11-20T20:49:09.884Z,99.90
2023-11-20T20:52:52.309Z,99.90
2023-11-20T20:56:34.233Z,99.90
2023-11-20T21:00:16.849Z,99.90
2023-11-20T21:03:58.670Z,99.90
2023-11-20T21:07:41.018Z,99.90
2023-11-20T21:11:23.791Z,99.90
2023-11-20T21:15:07.311Z,99.70
2023-11-20T21:18:49.160Z,99.60
2023-11-20T21:22:31.015Z,99.50
2023-11-20T21:26:13.493Z,99.30
2023-11-20T21:29:55.827Z,99.20
2023-11-20T21:33:37.780Z,99.10
2023-11-20T21:37:19.623Z,98.90
2023-11-20T21:41:01.774Z,98.90
2023-11-20T21:44:43.613Z,98.90
2023-11-20T21:48:25.406Z,98.80
2023-11-20T21:52:07.342Z,98.80
2023-11-20T21:55:49.215Z,98.80
2023-11-20T21:59:31.153Z,98.80
2023-11-20T22:03:13.167Z,98.80
2023-11-20T22:06:55.162Z,98.90
2023-11-20T22:10:39.311Z,99.00
2023-11-20T22:14:21.317Z,99.00
2023-11-20T22:18:03.291Z,99.00
2023-11-20T22:21:45.329Z,99.00
2023-11-20T22:25:27.170Z,99.00
2023-11-20T22:29:09.024Z,98.90
2023-11-20T22:32:50.858Z,98.90
2023-11-20T22:36:32.766Z,99.00
2023-11-20T22:40:16.925Z,99.00
2023-11-20T22:43:59.309Z,99.10
2023-11-20T22:47:41.164Z,99.20
2023-11-20T22:51:23.008Z,99.30
2023-11-20T22:55:06.450Z,99.40
2023-11-20T22:58:48.363Z,99.40
2023-11-20T23:02:30.660Z,99.40
2023-11-20T23:06:13.198Z,99.40
2023-11-20T23:09:55.032Z,99.50
2023-11-20T23:13:36.936Z,99.50
2023-11-20T23:17:18.911Z,99.50
2023-11-20T23:21:05.234Z,99.50
2023-11-20T23:24:47.265Z,99.60
2023-11-20T23:28:30.794Z,99.70
2023-11-20T23:32:13.403Z,99.70
2023-11-20T23:35:56.138Z,99.80
2023-11-20T23:39:38.063Z,99.90
2023-11-20T23:43:22.171Z,99.90
2023-11-20T23:47:04.929Z,99.90
2023-11-20T23:50:46.860Z,99.90
2023-11-20T23:54:28.758Z,99.90
2023-11-20T23:58:10.735Z,99.90
